Motley, Alabama
Current Conditions -  °F | °C
As of 3:15 AM on Monday 22 Dec 2014 (Local Time) from KLGC Reporting Station
Overcast Overcast  
Wind Chill: 51°   Ceiling: 400
Heat Index: 51°   Visibility: 10mi
Dew Point: 50°   Wind: 3mph
Humidity: 96%   Direction: 110°ESE
Pressure: 30.01"   Gusts: NA
Location:  33.1661°N, 85.5111°W
Report Text: KLGC 220915Z AUTO 11003KT 10SM OVC004 11/10 A3001 RMK AO2 T01070101
Loading
Personal Weather Stations






























Interactive Weather Map New forecast layout! Learn more

10-Day Weather Forecast

Advertisements
Track Severe Weather on mobile